Impacts METAR Board
IDs:

KPIT - Pittsburgh Intl, PA, US

Updated at: 0800 UTC 19 Jun 2018
Potential Impact None Slight Moderate High
Time 18/20Z 18/21Z 18/22Z 18/23Z 19/00Z 19/01Z 19/02Z 19/03Z 19/04Z 19/05Z 19/06Z 19/07Z 19/08Z
Temp90 90 90 88 87 84 83 83 81 81 81 78 76
Dewpt68 70 69 71 71 71 70 69 70 70 70 71 71
Altim29.99 29.97 29.95 29.94 29.93 29.93 29.92 29.93 29.93 29.92 29.93 29.93 29.93
VIS10 10 10 10 10 10 10 10 10 10 10 10 10
CIG250 250 -- -- 250 250 250 250 -- -- 55 -- 48
CoverBKNBKNSCTSCTBKNBKNBKNBKNSCTSCTBKNSCTBKN
FltCatVFRVFRVFRVFRVFRVFRVFRVFRVFRVFRVFRVFRVFR
WX--------------------------
WDir2602402402502302302302302402503303400
WSpd11 7 12 8 6 7 8 8 9 8 10 4 0
WGst-- 20 21 -- -- -- -- -- -- -- -- -- --
Raw hourly METARs
KPIT 181951Z 26011KT 10SM FEW048 BKN250 32/20 A2999 RMK AO2 SLP150 T03220200
KPIT 182051Z 24007G20KT 10SM FEW048 SCT130 BKN250 32/21 A2997 RMK AO2 SLP145 T03220211 56021
KPIT 182151Z 24012G21KT 10SM FEW048 FEW140 SCT250 32/21 A2995 RMK AO2 SLP136 T03220206
KPIT 182251Z 25008KT 10SM FEW050 FEW140 SCT250 31/22 A2994 RMK AO2 SLP135 T03110217
KPIT 182351Z 23006KT 10SM FEW140 BKN250 31/22 A2993 RMK AO2 SLP130 T03060217 10328 20306 56014
KPIT 190051Z 23007KT 10SM FEW140 BKN250 29/22 A2993 RMK AO2 SLP130 T02890217
KPIT 190151Z 23008KT 10SM FEW140 BKN250 28/21 A2992 RMK AO2 SLP129 LTG DSNT N T02830211
KPIT 190251Z 23008KT 10SM BKN250 28/21 A2993 RMK AO2 SLP130 LTG DSNT NE T02830206 53001
KPIT 190351Z 24009KT 10SM FEW050 SCT250 27/21 A2993 RMK AO2 SLP131 LTG DSNT N-NE T02720211
KPIT 190451Z 25008KT 10SM SCT050 SCT250 27/21 A2992 RMK AO2 LTG DSNT NE SLP127 T02720211 403280222
KPIT 190551Z 33010KT 10SM FEW035 BKN055 27/21 A2993 RMK AO2 LTG DSNT N AND NE SLP128 T02720211 10306 20267 55001
KPIT 190651Z 34004KT 10SM FEW035 SCT055 SCT250 26/22 A2993 RMK AO2 SLP128 T02560217
KPIT 190751Z 00000KT 10SM FEW032 BKN048 24/22 A2993 RMK AO2 SLP131 T02440217



Page loaded:  08:54 UTC  |   01:54 AM Pacific  |   02:54 AM Mountain  |   03:54 AM Central  |   04:54 AM Eastern

 

ADVISORIES

FORECASTS

FORECASTS

OBSERVATIONS

USER TOOLS

ABOUT US